Strona główna
METAR-TAF:

METAR-TAF

Lotnisko :

Koniak, Francja

Szerokość geograficzna: 45-40N, Długość geograficzna: 000-19W, wysokość: 30 m

Aktualna obserwacja pogody

Raport powstał 40 minut temu, godzina 14:00 UTC
Wiatr 6 kt od południowy zachód, zmienny między południe i zachodnio-południowy zachód
Temperatura 34°C
Wilgotność 25%
Ciśnienie 1016 hPa
Widzialność 10 km lub więcej
Brak chmur poniżej 1500 m i brak chmur cumulonimbus

METAR: LFBG 241400Z AUTO 22006KT 170V250 CAVOK 34/11 Q1016

czas: 16:40 (14:40 UTC)

Prognoza

Raport powstał 6 godziny i 40 minut temu, godzina 08:00 UTC
Prognoza ważna od 24 godzina 08 UTC do 25 godzina 03 UTC
Wiatr 5 kt od wschodnio-południowy wschód
Widzialność 10 km lub więcej
Brak chmur poniżej 1500 m i brak chmur cumulonimbus

TAF: LFBG 240800Z 2408/2503 12005KT CAVOK

Obserwacja i prognoza pogody dla ponad 4000 lotnisk (raport METAR i TAF).

Dostępne stacje oznaczono żółtymi i czerwonymi punktami na mapie.

Najedź kursorem aby zobaczyć nazwę stacji.

Kliknij aby zobaczyć obserwacje i prognozy pogody.

Aby zmienić mapę: kliknij na zielony przycisk z czarnym krzyżykiem, aby powiększyć; na zielony przycisk z myślnikiem, aby pomniejszyć; na zielone strzałki, aby przejść do map sąsiednich.


METAR-TAF: